createdAt,value
2022-12-23T00:00:22.842Z,52.60
2022-12-23T00:03:25.450Z,52.30
2022-12-23T00:06:27.823Z,51.88
2022-12-23T00:09:30.220Z,52.33
2022-12-23T00:12:51.191Z,51.80
2022-12-23T00:16:25.962Z,50.97
2022-12-23T00:19:28.922Z,50.75
2022-12-23T00:22:50.477Z,50.72
2022-12-23T00:25:52.675Z,49.10
2022-12-23T00:28:58.694Z,48.83
2022-12-23T00:32:01.112Z,47.15
2022-12-23T00:35:03.722Z,48.55
2022-12-23T00:38:05.965Z,46.80
2022-12-23T00:41:31.282Z,47.28
2022-12-23T00:44:33.427Z,47.75
2022-12-23T00:47:54.259Z,47.05
2022-12-23T00:50:59.993Z,46.23
2022-12-23T00:54:02.463Z,46.30
2022-12-23T00:57:04.917Z,47.00
2022-12-23T01:00:07.527Z,46.42
2022-12-23T01:03:32.137Z,45.30
2022-12-23T01:06:34.447Z,48.45
2022-12-23T01:09:36.949Z,47.20
2022-12-23T01:12:39.049Z,44.97
2022-12-23T01:15:41.549Z,47.30
2022-12-23T01:18:43.995Z,47.58
2022-12-23T01:21:46.106Z,47.03
2022-12-23T01:24:48.510Z,46.55
2022-12-23T01:27:50.649Z,47.43
2022-12-23T01:30:52.874Z,44.45
2022-12-23T01:33:55.534Z,45.53
2022-12-23T01:36:57.800Z,46.17
2022-12-23T01:40:00.130Z,43.92
2022-12-23T01:43:02.297Z,47.13
2022-12-23T01:46:04.655Z,46.00
2022-12-23T01:49:07.052Z,46.53
2022-12-23T01:52:10.129Z,46.97
2022-12-23T01:55:12.982Z,42.95
2022-12-23T01:58:19.585Z,41.50
2022-12-23T02:01:40.601Z,45.13
2022-12-23T02:04:43.379Z,42.50
2022-12-23T02:08:04.897Z,42.38
2022-12-23T02:11:25.592Z,40.97
2022-12-23T02:15:05.044Z,42.40
2022-12-23T02:18:19.887Z,40.03
2022-12-23T02:21:45.102Z,42.95
2022-12-23T02:25:22.989Z,41.45
2022-12-23T02:28:28.193Z,42.13
2022-12-23T02:31:33.714Z,40.73
2022-12-23T02:35:02.437Z,40.35
2022-12-23T02:38:14.199Z,41.60
2022-12-23T02:41:23.053Z,40.70
2022-12-23T02:44:25.421Z,41.07
2022-12-23T02:47:37.861Z,41.22
2022-12-23T02:50:41.179Z,40.70
2022-12-23T02:53:45.824Z,40.97
2022-12-23T02:56:50.144Z,39.63
2022-12-23T02:59:52.979Z,40.13
2022-12-23T03:02:55.234Z,39.13
2022-12-23T03:05:57.864Z,40.58
2022-12-23T03:09:00.655Z,40.17
2022-12-23T03:12:02.819Z,39.03
2022-12-23T03:15:07.785Z,39.35
2022-12-23T03:18:16.074Z,44.95
2022-12-23T03:21:38.536Z,45.10
2022-12-23T03:24:47.511Z,45.30
2022-12-23T03:27:55.845Z,47.50
2022-12-23T03:30:59.674Z,47.10
2022-12-23T03:34:15.160Z,45.50
2022-12-23T03:37:17.956Z,46.47
2022-12-23T03:40:34.037Z,45.67
2022-12-23T03:43:50.462Z,44.17
2022-12-23T03:47:04.430Z,42.03
2022-12-23T03:50:08.528Z,43.03
2022-12-23T03:53:13.998Z,42.10
2022-12-23T03:56:24.364Z,38.90
2022-12-23T03:59:40.936Z,44.70
2022-12-23T04:02:43.177Z,46.67
2022-12-23T04:05:49.539Z,44.60
2022-12-23T04:08:52.459Z,42.43
2022-12-23T04:11:55.486Z,45.92
2022-12-23T04:14:58.053Z,44.67
2022-12-23T04:18:00.268Z,44.67
2022-12-23T04:21:03.385Z,43.08
2022-12-23T04:24:05.722Z,43.95
2022-12-23T04:27:09.645Z,43.17
2022-12-23T04:30:13.843Z,44.43
2022-12-23T04:33:16.131Z,41.85
2022-12-23T04:36:18.288Z,44.20
2022-12-23T04:39:20.564Z,45.00
2022-12-23T04:42:23.241Z,42.50
2022-12-23T04:45:25.412Z,43.50
2022-12-23T04:48:27.578Z,45.67
2022-12-23T04:51:29.843Z,43.90
2022-12-23T04:54:32.008Z,45.87
2022-12-23T04:57:34.193Z,45.20
2022-12-23T05:00:40.057Z,44.78
2022-12-23T05:03:42.614Z,48.05
2022-12-23T05:06:44.843Z,45.40
2022-12-23T05:09:46.943Z,51.08
2022-12-23T05:12:49.071Z,51.08
2022-12-23T05:15:52.273Z,50.70
2022-12-23T05:18:54.481Z,50.60
2022-12-23T05:21:56.734Z,49.67
2022-12-23T05:24:58.991Z,49.70
2022-12-23T05:28:01.148Z,48.43
2022-12-23T05:31:06.204Z,46.53
2022-12-23T05:34:08.418Z,47.55
2022-12-23T05:37:10.533Z,45.92
2022-12-23T05:40:18.473Z,45.50
2022-12-23T05:43:23.990Z,44.90
2022-12-23T05:46:27.034Z,44.92
2022-12-23T05:49:29.426Z,47.17
2022-12-23T05:52:31.731Z,46.30
2022-12-23T05:55:34.077Z,47.05
2022-12-23T05:58:36.636Z,49.35
2022-12-23T06:01:38.855Z,49.05
2022-12-23T06:04:41.248Z,46.70
2022-12-23T06:07:43.477Z,45.47
2022-12-23T06:10:48.754Z,47.28
2022-12-23T06:13:52.696Z,48.67
2022-12-23T06:16:54.845Z,48.38
2022-12-23T06:19:57.000Z,49.90
2022-12-23T06:22:59.183Z,46.78
2022-12-23T06:26:01.912Z,47.30
2022-12-23T06:29:04.481Z,50.67
2022-12-23T06:32:07.122Z,48.40
2022-12-23T06:35:09.654Z,50.00
2022-12-23T06:38:12.430Z,52.43
2022-12-23T06:41:15.787Z,49.10
2022-12-23T06:44:18.218Z,51.50
2022-12-23T06:47:20.400Z,50.97
2022-12-23T06:50:22.581Z,49.80
2022-12-23T06:53:25.047Z,49.10
2022-12-23T06:56:27.376Z,50.53
2022-12-23T06:59:30.116Z,49.40
2022-12-23T07:02:32.342Z,48.53
2022-12-23T07:05:37.650Z,48.08
2022-12-23T07:08:40.182Z,47.15
2022-12-23T07:11:42.623Z,46.53
2022-12-23T07:14:44.751Z,45.37
2022-12-23T07:17:46.945Z,45.23
2022-12-23T07:20:50.447Z,49.17
2022-12-23T07:23:52.850Z,47.50
2022-12-23T07:26:56.305Z,46.47
2022-12-23T07:29:58.481Z,44.47
2022-12-23T07:33:00.649Z,47.05
2022-12-23T07:36:02.697Z,48.88
2022-12-23T07:39:05.009Z,48.80
2022-12-23T07:45:29.888Z,43.63
2022-12-23T07:48:32.061Z,44.78
2022-12-23T07:51:34.231Z,44.83
2022-12-23T07:54:36.592Z,44.95
2022-12-23T07:57:40.010Z,46.35
2022-12-23T08:00:45.003Z,45.58
2022-12-23T08:03:47.612Z,45.93
2022-12-23T08:06:49.993Z,48.22
2022-12-23T08:09:52.293Z,46.30
2022-12-23T08:12:54.571Z,45.25
2022-12-23T08:15:57.917Z,48.30
2022-12-23T08:18:59.999Z,48.37
2022-12-23T08:22:07.921Z,46.58
2022-12-23T08:25:10.255Z,44.53
2022-12-23T08:28:12.419Z,45.87
2022-12-23T08:31:20.540Z,44.65
2022-12-23T08:34:23.596Z,44.22
2022-12-23T08:37:25.895Z,42.60
2022-12-23T08:40:30.590Z,51.07
2022-12-23T08:43:36.029Z,47.77
2022-12-23T08:46:38.936Z,42.78
2022-12-23T08:49:41.129Z,39.72
2022-12-23T08:52:43.655Z,41.67
2022-12-23T08:55:47.032Z,41.80
2022-12-23T08:58:50.199Z,41.13
2022-12-23T09:01:52.507Z,42.08
2022-12-23T09:04:54.915Z,42.23
2022-12-23T09:07:57.036Z,43.07
2022-12-23T09:10:59.603Z,41.65
2022-12-23T09:14:02.039Z,41.03
2022-12-23T09:17:04.205Z,41.30
2022-12-23T09:20:06.851Z,49.10
2022-12-23T09:23:09.135Z,46.40
2022-12-23T09:26:17.164Z,48.22
2022-12-23T09:29:19.410Z,46.87
2022-12-23T09:32:21.599Z,46.57
2022-12-23T09:35:23.989Z,46.97
2022-12-23T09:38:26.367Z,48.75
2022-12-23T09:41:43.640Z,42.03
2022-12-23T09:44:48.897Z,47.83
2022-12-23T09:47:51.846Z,44.40
2022-12-23T09:50:55.478Z,42.65
2022-12-23T09:54:03.487Z,46.33
2022-12-23T09:57:08.601Z,46.25
2022-12-23T10:00:13.052Z,46.08
2022-12-23T10:03:42.375Z,45.05
2022-12-23T10:06:46.843Z,44.97
2022-12-23T10:09:50.093Z,43.60
2022-12-23T10:12:53.765Z,51.22
2022-12-23T10:15:58.459Z,46.53
2022-12-23T10:19:03.638Z,43.47
2022-12-23T10:22:10.268Z,42.77
2022-12-23T10:25:22.889Z,44.92
2022-12-23T10:28:29.626Z,45.17
2022-12-23T10:31:40.962Z,44.40
2022-12-23T10:34:46.353Z,47.97
2022-12-23T10:37:48.953Z,47.25
2022-12-23T10:41:07.143Z,47.70
2022-12-23T10:44:17.710Z,47.23
2022-12-23T10:47:23.580Z,47.43
2022-12-23T10:50:35.876Z,43.35
2022-12-23T10:53:50.223Z,47.00
2022-12-23T10:56:53.432Z,46.17
2022-12-23T10:59:56.959Z,44.93
2022-12-23T11:03:15.459Z,48.75
2022-12-23T11:06:18.087Z,47.72
2022-12-23T11:09:24.790Z,49.72
2022-12-23T11:12:47.499Z,49.07
2022-12-23T11:15:50.453Z,47.13
2022-12-23T11:18:53.971Z,46.80
2022-12-23T11:21:59.821Z,46.17
2022-12-23T11:25:20.505Z,46.70
2022-12-23T11:28:23.195Z,43.97
2022-12-23T11:31:32.617Z,44.25
2022-12-23T11:34:38.176Z,43.67
2022-12-23T11:37:43.544Z,42.03
2022-12-23T11:40:48.017Z,42.23
2022-12-23T11:43:55.523Z,44.47
2022-12-23T11:46:57.661Z,45.47
2022-12-23T11:50:01.702Z,46.92
2022-12-23T11:53:09.754Z,47.57
2022-12-23T11:56:14.453Z,48.25
2022-12-23T11:59:31.952Z,45.85
2022-12-23T12:02:34.226Z,46.13
2022-12-23T12:05:40.785Z,45.83
2022-12-23T12:08:43.504Z,44.25
2022-12-23T12:11:48.763Z,46.55
2022-12-23T12:14:55.455Z,47.70
2022-12-23T12:17:58.008Z,49.77
2022-12-23T12:21:07.114Z,48.77
2022-12-23T12:24:38.559Z,51.05
2022-12-23T12:27:41.819Z,52.97
2022-12-23T12:30:51.386Z,47.45
2022-12-23T12:33:57.422Z,51.70
2022-12-23T12:37:13.067Z,49.10
2022-12-23T12:40:26.141Z,53.95
2022-12-23T12:43:28.441Z,52.42
2022-12-23T12:46:30.590Z,50.97
2022-12-23T12:49:43.236Z,51.17
2022-12-23T12:52:45.495Z,57.03
2022-12-23T12:55:50.837Z,63.53
2022-12-23T12:58:52.984Z,62.25
2022-12-23T13:02:07.163Z,59.17
2022-12-23T13:05:16.060Z,61.90
2022-12-23T13:08:18.399Z,61.03
2022-12-23T13:11:28.578Z,55.22
2022-12-23T13:14:37.514Z,61.45
2022-12-23T13:18:03.473Z,54.80
2022-12-23T13:21:10.405Z,60.93
2022-12-23T13:24:15.504Z,57.17
2022-12-23T13:27:25.522Z,63.47
2022-12-23T13:30:30.236Z,64.28
2022-12-23T13:33:51.113Z,63.67
2022-12-23T13:37:00.885Z,63.38
2022-12-23T13:40:22.047Z,59.10
2022-12-23T13:43:25.347Z,55.45
2022-12-23T13:46:27.597Z,60.60
2022-12-23T13:49:33.829Z,56.73
2022-12-23T13:52:39.148Z,60.50
2022-12-23T13:55:44.590Z,61.58
2022-12-23T13:58:48.193Z,66.28
2022-12-23T14:01:52.715Z,65.83
2022-12-23T14:04:59.344Z,60.78
2022-12-23T14:08:02.948Z,58.97
2022-12-23T14:11:15.986Z,58.13
2022-12-23T14:14:21.089Z,58.43
2022-12-23T14:17:28.901Z,68.22
2022-12-23T14:20:38.116Z,68.60
2022-12-23T14:24:04.006Z,62.13
2022-12-23T14:27:06.829Z,63.13
2022-12-23T14:30:15.727Z,72.68
2022-12-23T14:33:25.830Z,70.85
2022-12-23T14:36:28.661Z,68.30
2022-12-23T14:39:32.451Z,65.37
2022-12-23T14:42:42.289Z,65.53
2022-12-23T14:45:44.808Z,62.13
2022-12-23T14:48:46.990Z,59.00
2022-12-23T14:51:51.067Z,60.23
2022-12-23T14:55:27.934Z,54.42
2022-12-23T14:58:20.157Z,55.88
2022-12-23T15:01:34.562Z,58.15
2022-12-23T15:04:43.851Z,53.93
2022-12-23T15:07:46.976Z,54.87
2022-12-23T15:10:49.814Z,51.97
2022-12-23T15:13:52.933Z,45.45
2022-12-23T15:16:55.147Z,42.63
2022-12-23T15:20:12.961Z,40.20
2022-12-23T15:23:17.962Z,39.65
2022-12-23T15:26:21.698Z,40.90
2022-12-23T15:29:23.968Z,41.25
2022-12-23T15:32:26.841Z,39.57
2022-12-23T15:35:31.010Z,38.70
2022-12-23T15:38:36.018Z,37.72
2022-12-23T15:41:46.432Z,37.08
2022-12-23T15:44:48.583Z,35.40
2022-12-23T15:47:51.048Z,36.85
2022-12-23T15:50:55.088Z,37.28
2022-12-23T15:53:59.742Z,35.65
2022-12-23T15:57:03.083Z,35.40
2022-12-23T16:00:05.607Z,35.67
2022-12-23T16:03:37.625Z,34.35
2022-12-23T16:06:40.030Z,32.60
2022-12-23T16:09:42.575Z,32.10
2022-12-23T16:12:44.933Z,32.73
2022-12-23T16:15:47.281Z,32.08
2022-12-23T16:18:49.588Z,32.88
2022-12-23T16:21:51.769Z,33.92
2022-12-23T16:24:56.959Z,32.67
2022-12-23T16:28:02.395Z,31.33
2022-12-23T16:31:06.178Z,32.40
2022-12-23T16:34:08.529Z,33.42
2022-12-23T16:37:10.738Z,32.20
2022-12-23T16:40:15.891Z,32.28
2022-12-23T16:43:19.136Z,31.63
2022-12-23T16:46:22.659Z,32.05
2022-12-23T16:49:32.925Z,31.70
2022-12-23T16:52:35.459Z,34.10
2022-12-23T16:55:37.988Z,34.75
2022-12-23T16:58:40.353Z,37.45
2022-12-23T17:01:45.333Z,39.35
2022-12-23T17:04:48.081Z,41.67
2022-12-23T17:07:51.310Z,48.97
2022-12-23T17:10:59.272Z,53.38
2022-12-23T17:14:04.943Z,45.88
2022-12-23T17:17:12.897Z,42.70
2022-12-23T17:20:15.719Z,52.70
2022-12-23T17:23:25.824Z,101.88
2022-12-23T17:26:30.337Z,79.55
2022-12-23T17:29:32.576Z,67.73
2022-12-23T17:32:34.892Z,64.53
2022-12-23T17:35:36.998Z,61.25
2022-12-23T17:38:39.367Z,54.72
2022-12-23T17:41:41.699Z,48.55
2022-12-23T17:44:44.272Z,53.13
2022-12-23T17:47:46.448Z,51.05
2022-12-23T17:50:50.484Z,49.88
2022-12-23T17:53:57.819Z,45.65
2022-12-23T17:57:00.499Z,44.00
2022-12-23T18:00:02.943Z,49.78
2022-12-23T18:03:21.460Z,48.65
2022-12-23T18:06:24.728Z,56.35
2022-12-23T18:09:27.233Z,50.30
2022-12-23T18:12:39.384Z,49.40
2022-12-23T18:15:42.257Z,47.70
2022-12-23T18:18:46.913Z,49.70
2022-12-23T18:21:50.054Z,44.33
2022-12-23T18:24:56.937Z,45.73
2022-12-23T18:28:01.244Z,44.70
2022-12-23T18:31:03.608Z,38.33
2022-12-23T18:34:05.767Z,41.10
2022-12-23T18:37:08.856Z,42.53
2022-12-23T18:40:11.177Z,42.05
2022-12-23T18:43:24.290Z,42.65
2022-12-23T18:46:26.526Z,38.83
2022-12-23T18:49:28.683Z,43.03
2022-12-23T18:52:31.165Z,47.20
2022-12-23T18:55:33.621Z,45.50
2022-12-23T18:58:35.755Z,48.10
2022-12-23T19:01:38.093Z,49.70
2022-12-23T19:04:40.369Z,44.92
2022-12-23T19:07:43.184Z,46.92
2022-12-23T19:10:47.077Z,41.45
2022-12-23T19:13:49.238Z,39.47
2022-12-23T19:16:52.576Z,35.13
2022-12-23T19:19:55.037Z,37.55
2022-12-23T19:22:57.152Z,36.05
2022-12-23T19:25:59.248Z,38.87
2022-12-23T19:29:01.411Z,36.97
2022-12-23T19:32:03.961Z,39.13
2022-12-23T19:35:06.453Z,39.67
2022-12-23T19:38:09.554Z,41.00
2022-12-23T19:41:13.877Z,42.70
2022-12-23T19:44:16.359Z,41.70
2022-12-23T19:47:18.485Z,39.60
2022-12-23T19:50:22.289Z,39.58
2022-12-23T19:53:24.677Z,39.27
2022-12-23T19:56:28.285Z,38.77
2022-12-23T19:59:30.847Z,33.63
2022-12-23T20:02:33.013Z,35.17
2022-12-23T20:05:35.162Z,33.92
2022-12-23T20:08:37.614Z,35.90
2022-12-23T20:11:41.576Z,37.05
2022-12-23T20:14:43.932Z,36.50
2022-12-23T20:17:46.136Z,34.92
2022-12-23T20:20:48.819Z,30.50
2022-12-23T20:23:51.262Z,27.20
2022-12-23T20:26:53.549Z,31.25
2022-12-23T20:29:55.926Z,31.38
2022-12-23T20:32:59.057Z,29.70
2022-12-23T20:36:01.349Z,33.47
2022-12-23T20:39:03.906Z,34.63
2022-12-23T20:42:06.629Z,36.10
2022-12-23T20:45:09.471Z,37.57
2022-12-23T20:48:12.316Z,48.92
2022-12-23T20:51:18.874Z,40.20
2022-12-23T20:54:24.963Z,37.17
2022-12-23T20:57:31.694Z,35.53
2022-12-23T21:00:34.361Z,35.53
2022-12-23T21:03:37.000Z,43.50
2022-12-23T21:06:39.904Z,42.53
2022-12-23T21:09:42.027Z,42.87
2022-12-23T21:12:44.507Z,43.90
2022-12-23T21:15:46.755Z,40.35
2022-12-23T21:18:52.682Z,39.53
2022-12-23T21:21:55.036Z,49.47
2022-12-23T21:24:57.275Z,40.63
2022-12-23T21:27:59.439Z,36.25
2022-12-23T21:31:03.807Z,35.88
2022-12-23T21:34:06.489Z,30.37
2022-12-23T21:37:08.619Z,31.08
2022-12-23T21:40:12.135Z,33.17
2022-12-23T21:43:14.487Z,32.60
2022-12-23T21:46:17.575Z,33.57
2022-12-23T21:49:20.456Z,35.87
2022-12-23T21:52:22.918Z,33.95
2022-12-23T21:55:25.073Z,34.15
2022-12-23T21:58:27.445Z,34.58
2022-12-23T22:01:30.434Z,36.43
2022-12-23T22:04:32.664Z,34.70
2022-12-23T22:07:34.804Z,36.42
2022-12-23T22:10:40.498Z,36.90
2022-12-23T22:13:43.059Z,36.03
2022-12-23T22:16:45.396Z,37.60
2022-12-23T22:19:47.732Z,40.15
2022-12-23T22:22:50.269Z,42.08
2022-12-23T22:25:55.630Z,41.15
2022-12-23T22:28:59.545Z,40.20
2022-12-23T22:32:02.308Z,40.88
2022-12-23T22:35:04.613Z,39.58
2022-12-23T22:38:07.194Z,39.30
2022-12-23T22:41:10.837Z,37.73
2022-12-23T22:44:16.468Z,36.88
2022-12-23T22:47:18.987Z,36.88
2022-12-23T22:50:22.938Z,35.58
2022-12-23T22:53:29.718Z,33.57
2022-12-23T22:56:32.520Z,35.25
2022-12-23T22:59:34.842Z,35.85
2022-12-23T23:02:37.036Z,37.63
2022-12-23T23:05:39.644Z,35.37
2022-12-23T23:08:42.554Z,38.70
2022-12-23T23:11:45.134Z,35.80
2022-12-23T23:14:53.550Z,36.25
2022-12-23T23:17:56.259Z,33.65
2022-12-23T23:20:58.964Z,32.33
2022-12-23T23:24:01.286Z,30.75
2022-12-23T23:27:03.822Z,31.02
2022-12-23T23:30:06.594Z,30.90
2022-12-23T23:33:09.685Z,30.40
2022-12-23T23:36:12.208Z,30.20
2022-12-23T23:39:14.653Z,29.48
2022-12-23T23:42:17.885Z,30.10
2022-12-23T23:45:20.662Z,29.70
2022-12-23T23:48:22.874Z,29.67
2022-12-23T23:51:25.023Z,29.98
2022-12-23T23:54:27.315Z,28.77
2022-12-23T23:57:29.491Z,31.17
